Time,TemperatureF,DewpointF,PressureIn,WindDirection,WindDirectionDegrees,WindSpeedMPH,WindSpeedGustMPH,Humidity,HourlyPrecipIn,Conditions,Clouds,dailyrainin,SoftwareType,DateUTC
2013-05-11 00:02:00,59.0,53.8,30.16,ESE,111,0.0,0.0,83,0.00,,,0.00,Wunderground v.1.15,2013-05-11 07:02:00,
2013-05-11 00:08:00,58.8,53.6,30.16,ESE,111,0.0,0.0,83,0.00,,,0.00,Wunderground v.1.15,2013-05-11 07:08:00,
2013-05-11 00:13:00,58.6,54.1,30.16,ESE,111,0.0,0.0,85,0.00,,,0.00,Wunderground v.1.15,2013-05-11 07:13:00,
2013-05-11 00:18:00,58.5,54.3,30.16,ESE,111,0.0,0.0,86,0.00,,,0.00,Wunderground v.1.15,2013-05-11 07:18:00,
2013-05-11 00:24:00,58.3,54.4,30.17,ESE,111,0.0,0.0,87,0.00,,,0.00,Wunderground v.1.15,2013-05-11 07:24:00,
2013-05-11 00:29:00,58.2,54.7,30.16,ESE,111,0.0,0.0,88,0.00,,,0.00,Wunderground v.1.15,2013-05-11 07:29:00,
2013-05-11 00:34:00,58.0,54.5,30.17,ESE,111,0.0,0.0,88,0.00,,,0.00,Wunderground v.1.15,2013-05-11 07:34:00,
2013-05-11 00:40:00,57.9,54.4,30.17,ESE,111,0.0,0.0,88,0.00,,,0.00,Wunderground v.1.15,2013-05-11 07:40:00,
2013-05-11 00:45:00,57.7,54.2,30.17,ESE,111,0.0,0.0,88,0.00,,,0.00,Wunderground v.1.15,2013-05-11 07:45:00,
2013-05-11 00:50:00,57.6,54.4,30.17,ESE,111,0.0,0.0,89,0.00,,,0.00,Wunderground v.1.15,2013-05-11 07:50:00,
2013-05-11 00:56:00,57.3,54.1,30.17,ESE,111,0.0,0.0,89,0.00,,,0.00,Wunderground v.1.15,2013-05-11 07:56:00,
2013-05-11 01:03:00,57.1,53.9,30.17,ESE,111,0.0,0.0,89,0.00,,,0.00,Wunderground v.1.15,2013-05-11 08:03:00,
2013-05-11 01:08:00,57.0,54.1,30.17,ESE,111,0.0,0.0,90,0.00,,,0.00,Wunderground v.1.15,2013-05-11 08:08:00,
2013-05-11 01:14:00,56.8,53.6,30.18,ESE,111,0.0,0.0,89,0.00,,,0.00,Wunderground v.1.15,2013-05-11 08:14:00,
2013-05-11 01:19:00,56.7,53.5,30.17,ESE,111,0.0,0.0,89,0.00,,,0.00,Wunderground v.1.15,2013-05-11 08:19:00,
2013-05-11 01:24:00,56.5,53.6,30.17,ESE,111,0.0,0.0,90,0.00,,,0.00,Wunderground v.1.15,2013-05-11 08:24:00,
2013-05-11 01:30:00,56.4,53.5,30.18,ESE,111,0.0,0.0,90,0.00,,,0.00,Wunderground v.1.15,2013-05-11 08:30:00,
2013-05-11 01:35:00,56.4,53.8,30.17,ESE,111,0.0,0.0,91,0.00,,,0.00,Wunderground v.1.15,2013-05-11 08:35:00,
2013-05-11 01:40:00,56.3,53.7,30.18,ESE,111,0.0,0.0,91,0.00,,,0.00,Wunderground v.1.15,2013-05-11 08:40:00,
2013-05-11 01:46:00,56.3,54.0,30.18,ESE,111,0.0,1.0,92,0.00,,,0.00,Wunderground v.1.15,2013-05-11 08:46:00,
2013-05-11 01:51:00,56.3,54.0,30.18,ESE,111,0.0,1.0,92,0.00,,,0.00,Wunderground v.1.15,2013-05-11 08:51:00,
2013-05-11 01:57:00,56.3,54.0,30.17,ESE,111,0.0,0.0,92,0.00,,,0.00,Wunderground v.1.15,2013-05-11 08:57:00,
2013-05-11 02:02:00,56.2,53.9,30.17,ESE,111,0.0,0.0,92,0.00,,,0.00,Wunderground v.1.15,2013-05-11 09:02:00,
2013-05-11 02:08:00,56.1,53.8,30.17,ESE,111,0.0,0.0,92,0.00,,,0.00,Wunderground v.1.15,2013-05-11 09:08:00,
2013-05-11 02:13:00,56.0,53.7,30.17,ESE,111,0.0,0.0,92,0.00,,,0.00,Wunderground v.1.15,2013-05-11 09:13:00,
2013-05-11 02:18:00,56.0,53.7,30.17,ESE,111,0.0,0.0,92,0.00,,,0.00,Wunderground v.1.15,2013-05-11 09:18:00,
2013-05-11 02:24:00,55.9,53.6,30.17,ESE,111,0.0,1.0,92,0.00,,,0.00,Wunderground v.1.15,2013-05-11 09:24:00,
2013-05-11 02:29:00,55.8,53.2,30.17,East,83,0.0,1.0,91,0.00,,,0.00,Wunderground v.1.15,2013-05-11 09:29:00,
2013-05-11 02:35:00,55.8,53.2,30.17,East,83,0.0,0.0,91,0.00,,,0.00,Wunderground v.1.15,2013-05-11 09:35:00,
2013-05-11 02:40:00,55.8,53.2,30.17,East,83,0.0,0.0,91,0.00,,,0.00,Wunderground v.1.15,2013-05-11 09:40:00,
2013-05-11 02:45:00,55.7,52.8,30.17,WSW,248,1.0,3.0,90,0.00,,,0.00,Wunderground v.1.15,2013-05-11 09:45:00,
2013-05-11 02:51:00,55.7,53.1,30.17,WSW,238,2.0,2.0,91,0.00,,,0.00,Wunderground v.1.15,2013-05-11 09:51:00,
2013-05-11 02:56:00,55.6,52.7,30.17,WSW,238,1.0,2.0,90,0.00,,,0.00,Wunderground v.1.15,2013-05-11 09:56:00,
2013-05-11 03:02:00,55.5,52.6,30.17,WSW,238,0.0,1.0,90,0.00,,,0.00,Wunderground v.1.15,2013-05-11 10:02:00,
2013-05-11 03:07:00,55.5,52.6,30.17,WSW,238,0.0,1.0,90,0.00,,,0.00,Wunderground v.1.15,2013-05-11 10:07:00,
2013-05-11 03:13:00,55.6,53.0,30.17,West,267,1.0,4.0,91,0.00,,,0.00,Wunderground v.1.15,2013-05-11 10:13:00,
2013-05-11 03:18:00,55.8,52.9,30.17,West,280,2.0,5.0,90,0.00,,,0.00,Wunderground v.1.15,2013-05-11 10:18:00,
2013-05-11 03:23:00,56.0,52.5,30.17,WSW,244,3.0,5.0,88,0.00,,,0.00,Wunderground v.1.15,2013-05-11 10:23:00,
2013-05-11 03:29:00,56.2,52.1,30.17,WSW,246,2.0,5.0,86,0.00,,,0.00,Wunderground v.1.15,2013-05-11 10:29:00,
2013-05-11 03:34:00,56.4,51.9,30.17,WSW,246,1.0,1.0,85,0.00,,,0.00,Wunderground v.1.15,2013-05-11 10:34:00,
2013-05-11 03:39:00,56.6,52.1,30.17,WSW,246,0.0,3.0,85,0.00,,,0.00,Wunderground v.1.15,2013-05-11 10:39:00,
2013-05-11 03:45:00,56.7,51.9,30.17,WSW,246,0.0,1.0,84,0.00,,,0.00,Wunderground v.1.15,2013-05-11 10:45:00,
2013-05-11 03:50:00,56.7,52.2,30.17,WSW,246,0.0,1.0,85,0.00,,,0.00,Wunderground v.1.15,2013-05-11 10:50:00,
2013-05-11 03:55:00,56.8,51.7,30.16,WSW,246,0.0,0.0,83,0.00,,,0.00,Wunderground v.1.15,2013-05-11 10:55:00,
2013-05-11 04:01:00,56.8,51.4,30.16,WSW,246,0.0,0.0,82,0.00,,,0.00,Wunderground v.1.15,2013-05-11 11:01:00,
2013-05-11 04:07:00,56.7,50.9,30.16,WSW,246,0.0,0.0,81,0.00,,,0.00,Wunderground v.1.15,2013-05-11 11:07:00,
2013-05-11 04:13:00,56.6,50.8,30.16,WSW,246,0.0,0.0,81,0.00,,,0.00,Wunderground v.1.15,2013-05-11 11:13:00,
2013-05-11 04:18:00,56.5,51.1,30.15,WSW,246,0.0,1.0,82,0.00,,,0.00,Wunderground v.1.15,2013-05-11 11:18:00,
2013-05-11 04:23:00,56.4,50.6,30.15,WSW,246,0.0,1.0,81,0.00,,,0.00,Wunderground v.1.15,2013-05-11 11:23:00,
2013-05-11 04:29:00,56.2,50.8,30.14,WSW,246,0.0,1.0,82,0.00,,,0.00,Wunderground v.1.15,2013-05-11 11:29:00,
2013-05-11 04:34:00,56.2,51.1,30.14,WSW,246,0.0,0.0,83,0.00,,,0.00,Wunderground v.1.15,2013-05-11 11:34:00,
2013-05-11 04:39:00,56.0,51.2,30.15,WSW,246,0.0,0.0,84,0.00,,,0.00,Wunderground v.1.15,2013-05-11 11:39:00,
2013-05-11 04:45:00,55.9,51.8,30.15,WSW,246,0.0,1.0,86,0.00,,,0.00,Wunderground v.1.15,2013-05-11 11:45:00,
2013-05-11 04:50:00,55.9,52.1,30.15,West,277,1.0,4.0,87,0.00,,,0.00,Wunderground v.1.15,2013-05-11 11:50:00,
2013-05-11 04:56:00,55.9,52.1,30.15,West,277,2.0,3.0,87,0.00,,,0.00,Wunderground v.1.15,2013-05-11 11:56:00,
2013-05-11 05:02:00,55.8,52.0,30.16,West,274,1.0,2.0,87,0.00,,,0.00,Wunderground v.1.15,2013-05-11 12:02:00,
2013-05-11 05:07:00,55.8,52.3,30.16,West,274,1.0,2.0,88,0.00,,,0.00,Wunderground v.1.15,2013-05-11 12:07:00,
2013-05-11 05:12:00,55.9,52.4,30.16,West,275,1.0,3.0,88,0.00,,,0.00,Wunderground v.1.15,2013-05-11 12:12:00,
2013-05-11 05:18:00,55.9,51.5,30.16,West,276,1.0,3.0,85,0.00,,,0.00,Wunderground v.1.15,2013-05-11 12:18:00,
2013-05-11 05:24:00,55.9,51.1,30.16,West,274,0.0,2.0,84,0.00,,,0.00,Wunderground v.1.15,2013-05-11 12:24:00,
2013-05-11 05:29:00,55.9,50.2,30.16,WNW,282,0.0,2.0,81,0.00,,,0.00,Wunderground v.1.15,2013-05-11 12:29:00,
2013-05-11 05:34:00,55.9,50.2,30.15,WNW,282,0.0,0.0,81,0.00,,,0.00,Wunderground v.1.15,2013-05-11 12:34:00,
2013-05-11 05:39:00,55.9,49.8,30.16,WNW,282,0.0,0.0,80,0.00,,,0.00,Wunderground v.1.15,2013-05-11 12:39:00,
2013-05-11 05:45:00,55.9,49.1,30.15,WNW,282,0.0,0.0,78,0.00,,,0.00,Wunderground v.1.15,2013-05-11 12:45:00,
2013-05-11 05:50:00,55.9,48.8,30.15,WNW,282,0.0,0.0,77,0.00,,,0.00,Wunderground v.1.15,2013-05-11 12:50:00,
2013-05-11 05:57:00,55.8,48.3,30.14,WNW,283,0.0,0.0,76,0.00,,,0.00,Wunderground v.1.15,2013-05-11 12:57:00,
2013-05-11 06:02:00,55.8,48.7,30.14,WNW,286,0.0,0.0,77,0.00,,,0.00,Wunderground v.1.15,2013-05-11 13:02:00,
2013-05-11 06:07:00,55.7,48.2,30.14,WNW,286,0.0,0.0,76,0.00,,,0.00,Wunderground v.1.15,2013-05-11 13:07:00,
2013-05-11 06:12:00,55.8,48.7,30.15,WNW,286,0.0,0.0,77,0.00,,,0.00,Wunderground v.1.15,2013-05-11 13:12:00,
2013-05-11 06:18:00,55.8,49.4,30.15,WNW,286,0.0,0.0,79,0.00,,,0.00,Wunderground v.1.15,2013-05-11 13:18:00,
2013-05-11 06:24:00,55.9,50.2,30.16,WNW,286,0.0,2.0,81,0.00,,,0.00,Wunderground v.1.15,2013-05-11 13:24:00,
2013-05-11 06:30:00,55.9,50.2,30.16,WNW,286,0.0,2.0,81,0.00,,,0.00,Wunderground v.1.15,2013-05-11 13:30:00,
2013-05-11 06:35:00,55.9,50.2,30.15,WNW,286,0.0,0.0,81,0.00,,,0.00,Wunderground v.1.15,2013-05-11 13:35:00,
2013-05-11 06:42:00,55.9,50.2,30.15,WNW,286,0.0,0.0,81,0.00,,,0.00,Wunderground v.1.15,2013-05-11 13:42:00,
2013-05-11 06:47:00,55.9,49.8,30.15,WNW,286,0.0,0.0,80,0.00,,,0.00,Wunderground v.1.15,2013-05-11 13:47:00,
2013-05-11 06:52:00,56.0,49.2,30.15,WNW,286,0.0,1.0,78,0.00,,,0.00,Wunderground v.1.15,2013-05-11 13:52:00,
2013-05-11 06:58:00,56.1,49.7,30.15,WNW,286,0.0,1.0,79,0.00,,,0.00,Wunderground v.1.15,2013-05-11 13:58:00,
2013-05-11 07:03:00,56.3,49.2,30.15,WNW,286,0.0,0.0,77,0.00,,,0.00,Wunderground v.1.15,2013-05-11 14:03:00,
2013-05-11 07:09:00,56.4,49.6,30.15,WNW,286,0.0,0.0,78,0.00,,,0.00,Wunderground v.1.15,2013-05-11 14:09:00,
2013-05-11 07:15:00,56.6,48.4,30.15,WNW,286,0.0,0.0,74,0.00,,,0.00,Wunderground v.1.15,2013-05-11 14:15:00,
2013-05-11 07:20:00,56.8,49.0,30.15,WNW,286,0.0,0.0,75,0.00,,,0.00,Wunderground v.1.15,2013-05-11 14:20:00,
2013-05-11 07:26:00,57.0,48.8,30.15,WNW,286,0.0,0.0,74,0.00,,,0.00,Wunderground v.1.15,2013-05-11 14:26:00,
2013-05-11 07:31:00,57.2,49.7,30.15,West,261,0.0,3.0,76,0.00,,,0.00,Wunderground v.1.15,2013-05-11 14:31:00,
2013-05-11 07:37:00,57.5,49.6,30.15,West,261,0.0,3.0,75,0.00,,,0.00,Wunderground v.1.15,2013-05-11 14:37:00,
2013-05-11 07:43:00,57.8,50.3,30.15,West,261,0.0,1.0,76,0.00,,,0.00,Wunderground v.1.15,2013-05-11 14:43:00,
2013-05-11 07:49:00,58.1,49.9,30.16,West,261,0.0,1.0,74,0.00,,,0.00,Wunderground v.1.15,2013-05-11 14:49:00,
2013-05-11 07:54:00,58.4,50.5,30.16,West,261,0.0,0.0,75,0.00,,,0.00,Wunderground v.1.15,2013-05-11 14:54:00,
2013-05-11 07:59:00,58.6,49.6,30.16,SW,221,1.0,4.0,72,0.00,,,0.00,Wunderground v.1.15,2013-05-11 14:59:00,
2013-05-11 08:05:00,58.7,48.9,30.16,WSW,243,2.0,4.0,70,0.00,,,0.00,Wunderground v.1.15,2013-05-11 15:05:00,
2013-05-11 08:10:00,58.9,49.1,30.16,WSW,243,1.0,4.0,70,0.00,,,0.00,Wunderground v.1.15,2013-05-11 15:10:00,
2013-05-11 08:16:00,59.3,49.1,30.16,South,171,0.0,1.0,69,0.00,,,0.00,Wunderground v.1.15,2013-05-11 15:16:00,
2013-05-11 08:22:00,59.6,49.8,30.16,South,171,0.0,0.0,70,0.00,,,0.00,Wunderground v.1.15,2013-05-11 15:22:00,
2013-05-11 08:28:00,60.0,49.8,30.16,South,173,0.0,0.0,69,0.00,,,0.00,Wunderground v.1.15,2013-05-11 15:28:00,
2013-05-11 08:33:00,60.2,49.2,30.16,SSW,195,0.0,2.0,67,0.00,,,0.00,Wunderground v.1.15,2013-05-11 15:33:00,
2013-05-11 08:39:00,60.6,49.6,30.16,South,189,0.0,2.0,67,0.00,,,0.00,Wunderground v.1.15,2013-05-11 15:39:00,
2013-05-11 08:44:00,60.9,49.5,30.16,South,189,0.0,0.0,66,0.00,,,0.00,Wunderground v.1.15,2013-05-11 15:44:00,
2013-05-11 08:50:00,61.2,48.5,30.16,South,173,0.0,2.0,63,0.00,,,0.00,Wunderground v.1.15,2013-05-11 15:50:00,
2013-05-11 08:55:00,61.4,48.7,30.16,SSE,165,1.0,2.0,63,0.00,,,0.00,Wunderground v.1.15,2013-05-11 15:55:00,
2013-05-11 09:00:00,61.6,49.3,30.16,East,86,1.0,4.0,64,0.00,,,0.00,Wunderground v.1.15,2013-05-11 16:00:00,
2013-05-11 09:05:00,61.8,50.3,30.15,SE,126,1.0,1.0,66,0.00,,,0.00,Wunderground v.1.15,2013-05-11 16:05:00,
2013-05-11 09:11:00,62.2,51.1,30.15,SSE,153,1.0,4.0,67,0.00,,,0.00,Wunderground v.1.15,2013-05-11 16:11:00,
2013-05-11 09:17:00,62.3,50.8,30.15,ENE,70,1.0,4.0,66,0.00,,,0.00,Wunderground v.1.15,2013-05-11 16:17:00,
2013-05-11 09:22:00,62.6,50.2,30.14,ESE,122,2.0,2.0,64,0.00,,,0.00,Wunderground v.1.15,2013-05-11 16:22:00,
2013-05-11 09:27:00,63.0,50.6,30.14,ESE,109,1.0,2.0,64,0.00,,,0.00,Wunderground v.1.15,2013-05-11 16:27:00,
2013-05-11 09:32:00,63.0,50.6,30.14,ESE,110,1.0,1.0,64,0.00,,,0.00,Wunderground v.1.15,2013-05-11 16:32:00,
2013-05-11 09:38:00,63.1,51.1,30.13,ESE,111,0.0,2.0,65,0.00,,,0.00,Wunderground v.1.15,2013-05-11 16:38:00,
2013-05-11 09:43:00,63.5,51.9,30.13,ESE,111,0.0,0.0,66,0.00,,,0.00,Wunderground v.1.15,2013-05-11 16:43:00,
2013-05-11 09:49:00,64.2,53.4,30.13,NNE,30,0.0,2.0,68,0.00,,,0.00,Wunderground v.1.15,2013-05-11 16:49:00,
2013-05-11 09:54:00,64.9,53.7,30.13,NE,46,1.0,2.0,67,0.00,,,0.00,Wunderground v.1.15,2013-05-11 16:54:00,
2013-05-11 09:59:00,65.7,54.0,30.13,NNW,339,1.0,2.0,66,0.00,,,0.00,Wunderground v.1.15,2013-05-11 16:59:00,
2013-05-11 10:04:00,66.6,54.5,30.13,ENE,64,1.0,4.0,65,0.00,,,0.00,Wunderground v.1.15,2013-05-11 17:04:00,
2013-05-11 10:10:00,67.7,55.9,30.13,ENE,60,1.0,4.0,66,0.00,,,0.00,Wunderground v.1.15,2013-05-11 17:10:00,
2013-05-11 10:15:00,68.8,55.7,30.12,ENE,60,0.0,1.0,63,0.00,,,0.00,Wunderground v.1.15,2013-05-11 17:15:00,
2013-05-11 10:20:00,69.7,55.6,30.12,ENE,60,0.0,1.0,61,0.00,,,0.00,Wunderground v.1.15,2013-05-11 17:20:00,
2013-05-11 10:25:00,70.8,55.3,30.12,ENE,60,0.0,1.0,58,0.00,,,0.00,Wunderground v.1.15,2013-05-11 17:25:00,
2013-05-11 10:31:00,71.3,56.7,30.11,WNW,296,0.0,1.0,60,0.00,,,0.00,Wunderground v.1.15,2013-05-11 17:31:00,
2013-05-11 10:36:00,72.1,56.0,30.12,WNW,301,1.0,4.0,57,0.00,,,0.00,Wunderground v.1.15,2013-05-11 17:36:00,
2013-05-11 10:42:00,73.2,54.5,30.12,West,262,3.0,5.0,52,0.00,,,0.00,Wunderground v.1.15,2013-05-11 17:42:00,
2013-05-11 10:48:00,73.9,55.2,30.12,WSW,246,4.0,5.0,52,0.00,,,0.00,Wunderground v.1.15,2013-05-11 17:48:00,
2013-05-11 10:53:00,74.1,54.8,30.12,NW,325,2.0,3.0,51,0.00,,,0.00,Wunderground v.1.15,2013-05-11 17:53:00,
2013-05-11 10:59:00,74.5,54.1,30.12,SW,236,1.0,3.0,49,0.00,,,0.00,Wunderground v.1.15,2013-05-11 17:59:00,
2013-05-11 11:04:00,75.0,55.6,30.12,West,272,1.0,3.0,51,0.00,,,0.00,Wunderground v.1.15,2013-05-11 18:04:00,
2013-05-11 11:10:00,76.0,54.3,30.12,NW,313,3.0,6.0,47,0.00,,,0.00,Wunderground v.1.15,2013-05-11 18:10:00,
2013-05-11 11:15:00,76.7,55.5,30.11,WNW,283,4.0,7.0,48,0.00,,,0.00,Wunderground v.1.15,2013-05-11 18:15:00,
2013-05-11 11:22:00,77.4,55.6,30.11,West,269,4.0,4.0,47,0.00,,,0.00,Wunderground v.1.15,2013-05-11 18:22:00,
2013-05-11 11:27:00,77.7,55.9,30.11,WNW,299,3.0,5.0,47,0.00,,,0.00,Wunderground v.1.15,2013-05-11 18:27:00,
2013-05-11 11:32:00,77.9,54.8,30.11,NW,306,2.0,2.0,45,0.00,,,0.00,Wunderground v.1.15,2013-05-11 18:32:00,
2013-05-11 11:38:00,77.6,55.8,30.11,WNW,286,2.0,3.0,47,0.00,,,0.00,Wunderground v.1.15,2013-05-11 18:38:00,
2013-05-11 11:43:00,77.6,55.8,30.11,West,261,2.0,3.0,47,0.00,,,0.00,Wunderground v.1.15,2013-05-11 18:43:00,
2013-05-11 11:49:00,78.1,55.6,30.11,WSW,248,2.0,4.0,46,0.00,,,0.00,Wunderground v.1.15,2013-05-11 18:49:00,
2013-05-11 11:55:00,78.5,56.6,30.11,SW,231,2.0,3.0,47,0.00,,,0.00,Wunderground v.1.15,2013-05-11 18:55:00,
2013-05-11 12:00:00,78.7,55.6,30.10,WSW,254,3.0,5.0,45,0.00,,,0.00,Wunderground v.1.15,2013-05-11 19:00:00,
2013-05-11 12:06:00,79.4,55.0,30.10,West,277,2.0,3.0,43,0.00,,,0.00,Wunderground v.1.15,2013-05-11 19:06:00,
2013-05-11 12:11:00,80.1,54.9,30.10,WNW,290,1.0,1.0,42,0.00,,,0.00,Wunderground v.1.15,2013-05-11 19:11:00,
2013-05-11 12:16:00,80.5,55.9,30.10,SW,229,0.0,2.0,43,0.00,,,0.00,Wunderground v.1.15,2013-05-11 19:16:00,
2013-05-11 12:22:00,81.0,54.4,30.10,SW,232,1.0,5.0,40,0.00,,,0.00,Wunderground v.1.15,2013-05-11 19:22:00,
2013-05-11 12:28:00,80.5,54.0,30.10,West,265,3.0,6.0,40,0.00,,,0.00,Wunderground v.1.15,2013-05-11 19:28:00,
2013-05-11 12:33:00,81.0,55.7,30.10,WSW,249,3.0,4.0,42,0.00,,,0.00,Wunderground v.1.15,2013-05-11 19:33:00,
2013-05-11 12:39:00,80.9,52.9,30.10,WSW,245,3.0,6.0,38,0.00,,,0.00,Wunderground v.1.15,2013-05-11 19:39:00,
2013-05-11 12:44:00,80.4,53.9,30.09,West,279,3.0,7.0,40,0.00,,,0.00,Wunderground v.1.15,2013-05-11 19:44:00,
2013-05-11 12:49:00,80.3,53.8,30.09,SW,232,2.0,7.0,40,0.00,,,0.00,Wunderground v.1.15,2013-05-11 19:49:00,
2013-05-11 12:54:00,79.9,52.0,30.09,SW,230,3.0,6.0,38,0.00,,,0.00,Wunderground v.1.15,2013-05-11 19:54:00,
2013-05-11 13:00:00,78.9,53.2,30.09,WNW,282,3.0,6.0,41,0.00,,,0.00,Wunderground v.1.15,2013-05-11 20:00:00,
2013-05-11 13:05:00,78.9,53.9,30.09,West,277,2.0,4.0,42,0.00,,,0.00,Wunderground v.1.15,2013-05-11 20:05:00,
2013-05-11 13:11:00,79.3,53.6,30.08,WNW,294,1.0,1.0,41,0.00,,,0.00,Wunderground v.1.15,2013-05-11 20:11:00,
2013-05-11 13:16:00,79.7,52.5,30.08,WNW,300,1.0,1.0,39,0.00,,,0.00,Wunderground v.1.15,2013-05-11 20:16:00,
2013-05-11 13:22:00,80.3,51.7,30.08,NW,304,1.0,1.0,37,0.00,,,0.00,Wunderground v.1.15,2013-05-11 20:22:00,
2013-05-11 13:27:00,81.4,54.8,30.08,NNW,336,1.0,3.0,40,0.00,,,0.00,Wunderground v.1.15,2013-05-11 20:27:00,
2013-05-11 13:33:00,82.8,54.6,30.08,WSW,247,1.0,3.0,38,0.00,,,0.00,Wunderground v.1.15,2013-05-11 20:33:00,
2013-05-11 13:38:00,84.0,54.2,30.08,NNW,340,2.0,5.0,36,0.00,,,0.00,Wunderground v.1.15,2013-05-11 20:38:00,
2013-05-11 13:44:00,85.3,53.8,30.08,WNW,302,3.0,3.0,34,0.00,,,0.00,Wunderground v.1.15,2013-05-11 20:44:00,
2013-05-11 13:49:00,86.5,54.8,30.07,WNW,299,2.0,3.0,34,0.00,,,0.00,Wunderground v.1.15,2013-05-11 20:49:00,
2013-05-11 13:54:00,87.0,56.8,30.07,NW,304,1.0,3.0,36,0.00,,,0.00,Wunderground v.1.15,2013-05-11 20:54:00,
2013-05-11 13:59:00,86.9,56.0,30.08,West,262,1.0,5.0,35,0.00,,,0.00,Wunderground v.1.15,2013-05-11 20:59:00,
2013-05-11 14:05:00,86.5,54.8,30.08,NW,314,2.0,5.0,34,0.00,,,0.00,Wunderground v.1.15,2013-05-11 21:05:00,
2013-05-11 14:12:00,86.4,54.7,30.07,SW,225,2.0,2.0,34,0.00,,,0.00,Wunderground v.1.15,2013-05-11 21:12:00,
2013-05-11 14:17:00,85.4,56.2,30.07,WSW,256,2.0,6.0,37,0.00,,,0.00,Wunderground v.1.15,2013-05-11 21:17:00,
2013-05-11 14:23:00,84.5,56.8,30.07,WSW,244,3.0,6.0,39,0.00,,,0.00,Wunderground v.1.15,2013-05-11 21:23:00,
2013-05-11 14:28:00,84.5,57.5,30.07,WNW,302,2.0,6.0,40,0.00,,,0.00,Wunderground v.1.15,2013-05-11 21:28:00,
2013-05-11 14:33:00,85.2,56.0,30.07,NW,317,1.0,3.0,37,0.00,,,0.00,Wunderground v.1.15,2013-05-11 21:33:00,
2013-05-11 14:38:00,85.6,58.5,30.07,WSW,240,2.0,4.0,40,0.00,,,0.00,Wunderground v.1.15,2013-05-11 21:38:00,
2013-05-11 14:44:00,85.7,57.9,30.06,West,262,3.0,4.0,39,0.00,,,0.00,Wunderground v.1.15,2013-05-11 21:44:00,
2013-05-11 14:49:00,85.2,57.4,30.06,SW,236,3.0,6.0,39,0.00,,,0.00,Wunderground v.1.15,2013-05-11 21:49:00,
2013-05-11 14:55:00,84.2,57.9,30.06,SW,235,4.0,7.0,41,0.00,,,0.00,Wunderground v.1.15,2013-05-11 21:55:00,
2013-05-11 15:00:00,83.6,57.4,30.06,SW,223,3.0,7.0,41,0.00,,,0.00,Wunderground v.1.15,2013-05-11 22:00:00,
2013-05-11 15:05:00,83.2,57.7,30.06,West,275,2.0,6.0,42,0.00,,,0.00,Wunderground v.1.15,2013-05-11 22:05:00,
2013-05-11 15:11:00,82.7,57.3,30.06,WNW,298,3.0,3.0,42,0.00,,,0.00,Wunderground v.1.15,2013-05-11 22:11:00,
2013-05-11 15:16:00,82.3,58.8,30.05,WNW,298,3.0,6.0,45,0.00,,,0.00,Wunderground v.1.15,2013-05-11 22:16:00,
2013-05-11 15:22:00,81.8,58.4,30.05,West,279,3.0,6.0,45,0.00,,,0.00,Wunderground v.1.15,2013-05-11 22:22:00,
2013-05-11 15:27:00,81.6,57.6,30.05,WNW,290,3.0,6.0,44,0.00,,,0.00,Wunderground v.1.15,2013-05-11 22:27:00,
2013-05-11 15:33:00,81.4,58.0,30.05,WNW,288,4.0,4.0,45,0.00,,,0.00,Wunderground v.1.15,2013-05-11 22:33:00,
2013-05-11 15:38:00,81.8,59.6,30.05,North,360,3.0,5.0,47,0.00,,,0.00,Wunderground v.1.15,2013-05-11 22:38:00,
2013-05-11 15:44:00,82.3,58.8,30.05,West,281,2.0,3.0,45,0.00,,,0.00,Wunderground v.1.15,2013-05-11 22:44:00,
2013-05-11 15:49:00,82.9,59.4,30.04,West,267,2.0,4.0,45,0.00,,,0.00,Wunderground v.1.15,2013-05-11 22:49:00,
2013-05-11 15:54:00,83.8,58.3,30.05,WSW,247,3.0,7.0,42,0.00,,,0.00,Wunderground v.1.15,2013-05-11 22:54:00,
2013-05-11 16:00:00,84.6,58.3,30.04,WNW,290,3.0,7.0,41,0.00,,,0.00,Wunderground v.1.15,2013-05-11 23:00:00,
2013-05-11 16:05:00,85.5,57.7,30.04,WNW,300,2.0,3.0,39,0.00,,,0.00,Wunderground v.1.15,2013-05-11 23:05:00,
2013-05-11 16:10:00,86.3,57.7,30.04,NW,304,1.0,3.0,38,0.00,,,0.00,Wunderground v.1.15,2013-05-11 23:10:00,
2013-05-11 16:16:00,86.7,58.1,30.04,SW,230,1.0,5.0,38,0.00,,,0.00,Wunderground v.1.15,2013-05-11 23:16:00,
2013-05-11 16:21:00,86.8,58.1,30.04,SW,230,2.0,6.0,38,0.00,,,0.00,Wunderground v.1.15,2013-05-11 23:21:00,
2013-05-11 16:27:00,86.1,57.5,30.04,WNW,286,2.0,7.0,38,0.00,,,0.00,Wunderground v.1.15,2013-05-11 23:27:00,
2013-05-11 16:32:00,85.9,57.3,30.04,SW,232,2.0,2.0,38,0.00,,,0.00,Wunderground v.1.15,2013-05-11 23:32:00,
2013-05-11 16:38:00,85.2,56.0,30.03,West,259,3.0,6.0,37,0.00,,,0.00,Wunderground v.1.15,2013-05-11 23:38:00,
2013-05-11 16:44:00,85.1,56.6,30.03,WSW,246,4.0,5.0,38,0.00,,,0.00,Wunderground v.1.15,2013-05-11 23:44:00,
2013-05-11 16:49:00,85.6,56.3,30.03,SW,232,3.0,5.0,37,0.00,,,0.00,Wunderground v.1.15,2013-05-11 23:49:00,
2013-05-11 16:55:00,85.7,57.2,30.03,SW,223,2.0,6.0,38,0.00,,,0.00,Wunderground v.1.15,2013-05-11 23:55:00,
2013-05-11 17:00:00,85.2,56.7,30.03,WSW,257,3.0,7.0,38,0.00,,,0.00,Wunderground v.1.15,2013-05-12 00:00:00,
2013-05-11 17:05:00,85.2,57.4,30.02,West,269,3.0,6.0,39,0.00,,,0.00,Wunderground v.1.15,2013-05-12 00:05:00,
2013-05-11 17:11:00,84.9,57.2,30.02,SW,222,4.0,4.0,39,0.00,,,0.00,Wunderground v.1.15,2013-05-12 00:11:00,
2013-05-11 17:16:00,84.8,58.5,30.02,West,265,4.0,8.0,41,0.00,,,0.00,Wunderground v.1.15,2013-05-12 00:16:00,
2013-05-11 17:22:00,84.2,55.1,30.02,SW,225,4.0,7.0,37,0.00,,,0.00,Wunderground v.1.15,2013-05-12 00:22:00,
2013-05-11 17:27:00,83.4,57.2,30.02,WSW,246,5.0,7.0,41,0.00,,,0.00,Wunderground v.1.15,2013-05-12 00:27:00,
2013-05-11 17:32:00,83.1,55.6,30.02,SW,219,5.0,5.0,39,0.00,,,0.00,Wunderground v.1.15,2013-05-12 00:32:00,
2013-05-11 17:38:00,82.4,55.0,30.02,SW,221,5.0,7.0,39,0.00,,,0.00,Wunderground v.1.15,2013-05-12 00:38:00,
2013-05-11 17:44:00,81.7,55.0,30.01,WSW,250,4.0,5.0,40,0.00,,,0.00,Wunderground v.1.15,2013-05-12 00:44:00,
2013-05-11 17:49:00,80.9,55.0,30.01,West,265,3.0,5.0,41,0.00,,,0.00,Wunderground v.1.15,2013-05-12 00:49:00,
2013-05-11 17:54:00,80.6,54.7,30.01,WSW,237,2.0,5.0,41,0.00,,,0.00,Wunderground v.1.15,2013-05-12 00:54:00,
2013-05-11 17:59:00,80.4,54.5,30.01,WNW,295,2.0,5.0,41,0.00,,,0.00,Wunderground v.1.15,2013-05-12 00:59:00,
2013-05-11 18:05:00,80.3,55.8,30.01,WSW,255,3.0,4.0,43,0.00,,,0.00,Wunderground v.1.15,2013-05-12 01:05:00,
2013-05-11 18:10:00,80.2,56.9,30.00,West,268,2.0,4.0,45,0.00,,,0.00,Wunderground v.1.15,2013-05-12 01:10:00,
2013-05-11 18:16:00,80.1,55.6,30.00,WSW,249,1.0,4.0,43,0.00,,,0.00,Wunderground v.1.15,2013-05-12 01:16:00,
2013-05-11 18:21:00,80.0,56.1,30.00,WNW,300,2.0,4.0,44,0.00,,,0.00,Wunderground v.1.15,2013-05-12 01:21:00,
2013-05-11 18:27:00,80.0,56.7,30.00,West,259,2.0,4.0,45,0.00,,,0.00,Wunderground v.1.15,2013-05-12 01:27:00,
2013-05-11 18:32:00,79.9,56.7,30.00,SW,234,1.0,3.0,45,0.00,,,0.00,Wunderground v.1.15,2013-05-12 01:32:00,
2013-05-11 18:38:00,79.7,57.7,30.00,WSW,255,1.0,4.0,47,0.00,,,0.00,Wunderground v.1.15,2013-05-12 01:38:00,
2013-05-11 18:43:00,79.2,54.8,30.00,SW,228,2.0,5.0,43,0.00,,,0.00,Wunderground v.1.15,2013-05-12 01:43:00,
2013-05-11 18:48:00,78.9,57.0,29.99,SW,221,2.0,5.0,47,0.00,,,0.00,Wunderground v.1.15,2013-05-12 01:48:00,
2013-05-11 18:54:00,78.5,56.6,29.99,SW,235,2.0,5.0,47,0.00,,,0.00,Wunderground v.1.15,2013-05-12 01:54:00,
2013-05-11 18:59:00,78.1,56.8,29.99,SW,235,2.0,5.0,48,0.00,,,0.00,Wunderground v.1.15,2013-05-12 01:59:00,
2013-05-11 19:04:00,77.7,57.0,29.99,WSW,237,2.0,6.0,49,0.00,,,0.00,Wunderground v.1.15,2013-05-12 02:04:00,
2013-05-11 19:10:00,77.1,54.7,29.99,SW,221,3.0,6.0,46,0.00,,,0.00,Wunderground v.1.15,2013-05-12 02:10:00,
2013-05-11 19:16:00,76.7,55.0,29.99,WSW,238,3.0,5.0,47,0.00,,,0.00,Wunderground v.1.15,2013-05-12 02:16:00,
2013-05-11 19:22:00,76.4,55.8,29.99,SW,225,3.0,3.0,49,0.00,,,0.00,Wunderground v.1.15,2013-05-12 02:22:00,
2013-05-11 19:27:00,76.0,56.0,29.99,WSW,253,2.0,4.0,50,0.00,,,0.00,Wunderground v.1.15,2013-05-12 02:27:00,
2013-05-11 19:33:00,75.6,55.6,29.99,WSW,237,2.0,3.0,50,0.00,,,0.00,Wunderground v.1.15,2013-05-12 02:33:00,
2013-05-11 19:38:00,75.2,55.8,29.99,SW,234,2.0,3.0,51,0.00,,,0.00,Wunderground v.1.15,2013-05-12 02:38:00,
2013-05-11 19:43:00,74.7,55.9,29.99,West,263,2.0,3.0,52,0.00,,,0.00,Wunderground v.1.15,2013-05-12 02:43:00,
2013-05-11 19:49:00,74.3,55.5,29.99,West,274,2.0,3.0,52,0.00,,,0.00,Wunderground v.1.15,2013-05-12 02:49:00,
2013-05-11 19:54:00,74.0,55.3,29.99,SW,217,1.0,2.0,52,0.00,,,0.00,Wunderground v.1.15,2013-05-12 02:54:00,
2013-05-11 20:00:00,73.7,55.5,30.00,WSW,238,1.0,4.0,53,0.00,,,0.00,Wunderground v.1.15,2013-05-12 03:00:00,
2013-05-11 20:05:00,73.5,55.3,30.00,WSW,239,2.0,3.0,53,0.00,,,0.00,Wunderground v.1.15,2013-05-12 03:05:00,
2013-05-11 20:10:00,73.3,55.1,29.99,SW,218,2.0,5.0,53,0.00,,,0.00,Wunderground v.1.15,2013-05-12 03:10:00,
2013-05-11 20:15:00,73.3,54.6,29.99,SW,227,3.0,4.0,52,0.00,,,0.00,Wunderground v.1.15,2013-05-12 03:15:00,
2013-05-11 20:22:00,73.2,54.5,29.99,SW,234,4.0,7.0,52,0.00,,,0.00,Wunderground v.1.15,2013-05-12 03:22:00,
2013-05-11 20:27:00,73.3,55.6,29.99,SW,231,4.0,5.0,54,0.00,,,0.00,Wunderground v.1.15,2013-05-12 03:27:00,
2013-05-11 20:33:00,73.1,56.0,29.99,SW,225,3.0,5.0,55,0.00,,,0.00,Wunderground v.1.15,2013-05-12 03:33:00,
2013-05-11 20:39:00,72.8,55.7,29.99,SW,235,3.0,7.0,55,0.00,,,0.00,Wunderground v.1.15,2013-05-12 03:39:00,
2013-05-11 20:44:00,72.4,55.3,30.00,WSW,237,3.0,5.0,55,0.00,,,0.00,Wunderground v.1.15,2013-05-12 03:44:00,
2013-05-11 20:50:00,72.1,56.0,30.00,SW,236,4.0,7.0,57,0.00,,,0.00,Wunderground v.1.15,2013-05-12 03:50:00,
2013-05-11 20:55:00,71.9,56.3,30.01,SW,230,4.0,5.0,58,0.00,,,0.00,Wunderground v.1.15,2013-05-12 03:55:00,
2013-05-11 21:02:00,71.5,56.9,30.00,SW,221,2.0,2.0,60,0.00,,,0.00,Wunderground v.1.15,2013-05-12 04:02:00,
2013-05-11 21:04:00,71.3,56.7,30.01,SW,234,2.0,5.0,60,0.00,,,0.00,Wunderground v.1.15,2013-05-12 04:04:00,
2013-05-11 21:05:00,71.2,56.6,30.01,SW,224,2.0,7.0,60,0.00,,,0.00,Wunderground v.1.15,2013-05-12 04:05:00,
2013-05-11 21:08:00,71.0,55.9,30.02,SW,221,3.0,10.0,59,0.00,,,0.00,Wunderground v.1.15,2013-05-12 04:08:00,
2013-05-11 21:13:00,71.0,56.9,30.02,SW,227,5.0,7.0,61,0.00,,,0.00,Wunderground v.1.15,2013-05-12 04:13:00,
2013-05-11 21:19:00,70.9,57.7,30.02,South,181,4.0,7.0,63,0.00,,,0.00,Wunderground v.1.15,2013-05-12 04:19:00,
2013-05-11 21:25:00,70.7,57.0,30.03,WSW,242,3.0,4.0,62,0.00,,,0.00,Wunderground v.1.15,2013-05-12 04:25:00,
2013-05-11 21:31:00,70.4,57.6,30.03,SW,229,2.0,5.0,64,0.00,,,0.00,Wunderground v.1.15,2013-05-12 04:31:00,
2013-05-11 21:36:00,70.2,57.9,30.03,WSW,238,3.0,5.0,65,0.00,,,0.00,Wunderground v.1.15,2013-05-12 04:36:00,
2013-05-11 21:41:00,69.9,58.0,30.03,SW,234,3.0,5.0,66,0.00,,,0.00,Wunderground v.1.15,2013-05-12 04:41:00,
2013-05-11 21:47:00,69.7,58.3,30.03,SW,217,2.0,3.0,67,0.00,,,0.00,Wunderground v.1.15,2013-05-12 04:47:00,
2013-05-11 21:52:00,69.4,58.4,30.03,SW,225,2.0,2.0,68,0.00,,,0.00,Wunderground v.1.15,2013-05-12 04:52:00,
2013-05-11 21:58:00,69.1,58.9,30.03,SW,229,1.0,3.0,70,0.00,,,0.00,Wunderground v.1.15,2013-05-12 04:58:00,
2013-05-11 22:03:00,68.9,58.7,30.03,SSW,213,2.0,4.0,70,0.00,,,0.00,Wunderground v.1.15,2013-05-12 05:03:00,
2013-05-11 22:09:00,68.7,58.9,30.03,SW,223,3.0,7.0,71,0.00,,,0.00,Wunderground v.1.15,2013-05-12 05:09:00,
2013-05-11 22:14:00,68.5,59.1,30.03,SW,221,2.0,5.0,72,0.00,,,0.00,Wunderground v.1.15,2013-05-12 05:14:00,
2013-05-11 22:19:00,68.4,59.4,30.03,West,267,4.0,7.0,73,0.00,,,0.00,Wunderground v.1.15,2013-05-12 05:19:00,
2013-05-11 22:25:00,68.3,59.3,30.03,SW,220,3.0,5.0,73,0.00,,,0.00,Wunderground v.1.15,2013-05-12 05:25:00,
2013-05-11 22:30:00,68.2,59.2,30.03,SW,235,3.0,6.0,73,0.00,,,0.00,Wunderground v.1.15,2013-05-12 05:30:00,
2013-05-11 22:36:00,68.1,59.1,30.03,SW,223,3.0,8.0,73,0.00,,,0.00,Wunderground v.1.15,2013-05-12 05:36:00,
2013-05-11 22:41:00,68.0,59.0,30.03,SW,224,3.0,4.0,73,0.00,,,0.00,Wunderground v.1.15,2013-05-12 05:41:00,
2013-05-11 22:47:00,67.9,58.9,30.03,SW,231,2.0,5.0,73,0.00,,,0.00,Wunderground v.1.15,2013-05-12 05:47:00,
2013-05-11 22:52:00,67.7,58.7,30.03,SSW,210,1.0,2.0,73,0.00,,,0.00,Wunderground v.1.15,2013-05-12 05:52:00,
2013-05-11 22:58:00,67.5,58.9,30.03,SSW,210,0.0,2.0,74,0.00,,,0.00,Wunderground v.1.15,2013-05-12 05:58:00,
2013-05-11 23:03:00,67.4,58.8,30.03,SW,234,0.0,0.0,74,0.00,,,0.00,Wunderground v.1.15,2013-05-12 06:03:00,
2013-05-11 23:09:00,67.2,58.2,30.03,SSE,165,0.0,0.0,73,0.00,,,0.00,Wunderground v.1.15,2013-05-12 06:09:00,
2013-05-11 23:14:00,67.1,58.5,30.02,SSE,167,0.0,0.0,74,0.00,,,0.00,Wunderground v.1.15,2013-05-12 06:14:00,
2013-05-11 23:19:00,67.0,58.4,30.02,South,173,0.0,1.0,74,0.00,,,0.00,Wunderground v.1.15,2013-05-12 06:19:00,
2013-05-11 23:25:00,66.8,58.6,30.02,South,179,0.0,0.0,75,0.00,,,0.00,Wunderground v.1.15,2013-05-12 06:25:00,
2013-05-11 23:30:00,66.6,58.1,30.02,SSE,159,0.0,4.0,74,0.00,,,0.00,Wunderground v.1.15,2013-05-12 06:30:00,
2013-05-11 23:35:00,66.4,58.2,30.02,SSE,156,0.0,1.0,75,0.00,,,0.00,Wunderground v.1.15,2013-05-12 06:35:00,
2013-05-11 23:41:00,66.2,58.0,30.02,South,182,0.0,1.0,75,0.00,,,0.00,Wunderground v.1.15,2013-05-12 06:41:00,
2013-05-11 23:46:00,65.9,58.1,30.02,South,182,0.0,1.0,76,0.00,,,0.00,Wunderground v.1.15,2013-05-12 06:46:00,
2013-05-11 23:52:00,65.7,58.3,30.02,SW,216,1.0,4.0,77,0.00,,,0.00,Wunderground v.1.15,2013-05-12 06:52:00,
2013-05-11 23:57:00,65.5,58.1,30.02,SW,216,1.0,1.0,77,0.00,,,0.00,Wunderground v.1.15,2013-05-12 06:57:00,